createdAt,value
2022-12-03T00:00:40.468Z,11.20
2022-12-03T00:03:08.756Z,10.80
2022-12-03T00:05:37.221Z,11.07
2022-12-03T00:08:06.988Z,12.53
2022-12-03T00:10:35.631Z,11.70
2022-12-03T00:13:03.846Z,12.10
2022-12-03T00:15:32.115Z,11.67
2022-12-03T00:18:00.333Z,12.30
2022-12-03T00:20:28.495Z,12.30
2022-12-03T00:22:56.606Z,12.27
2022-12-03T00:25:26.079Z,12.50
2022-12-03T00:27:54.255Z,12.10
2022-12-03T00:30:22.390Z,11.37
2022-12-03T00:32:50.534Z,13.43
2022-12-03T00:35:18.802Z,11.80
2022-12-03T00:37:46.932Z,11.40
2022-12-03T00:40:16.594Z,11.03
2022-12-03T00:42:46.139Z,12.43
2022-12-03T00:45:14.363Z,10.80
2022-12-03T00:47:42.465Z,12.43
2022-12-03T00:50:11.616Z,13.00
2022-12-03T00:52:39.705Z,12.63
2022-12-03T00:55:08.317Z,11.60
2022-12-03T00:57:36.462Z,11.70
2022-12-03T01:00:07.657Z,11.60
2022-12-03T01:02:36.020Z,13.10
2022-12-03T01:05:04.514Z,14.10
2022-12-03T01:07:32.773Z,13.23
2022-12-03T01:10:01.152Z,15.10
2022-12-03T01:12:29.303Z,15.07
2022-12-03T01:14:57.571Z,14.73
2022-12-03T01:17:27.078Z,13.60
2022-12-03T01:19:55.203Z,14.03
2022-12-03T01:22:23.541Z,14.07
2022-12-03T01:24:52.117Z,13.20
2022-12-03T01:27:20.375Z,11.80
2022-12-03T01:29:48.538Z,11.90
2022-12-03T01:32:19.409Z,11.83
2022-12-03T01:34:51.253Z,10.67
2022-12-03T01:37:23.262Z,12.90
2022-12-03T01:39:51.917Z,12.63
2022-12-03T01:42:22.919Z,12.07
2022-12-03T01:44:53.660Z,14.37
2022-12-03T01:47:26.127Z,13.13
2022-12-03T01:49:58.060Z,15.20
2022-12-03T01:52:31.530Z,13.90
2022-12-03T01:55:01.783Z,11.47
2022-12-03T01:57:35.411Z,12.17
2022-12-03T02:00:04.339Z,12.73
2022-12-03T02:02:34.090Z,12.40
2022-12-03T02:05:09.553Z,12.50
2022-12-03T02:07:37.818Z,12.83
2022-12-03T02:10:07.145Z,12.50
2022-12-03T02:12:37.656Z,12.17
2022-12-03T02:15:07.385Z,13.30
2022-12-03T02:17:35.737Z,12.67
2022-12-03T02:20:07.261Z,12.10
2022-12-03T02:22:41.508Z,11.53
2022-12-03T02:25:16.550Z,10.90
2022-12-03T02:27:45.104Z,10.50
2022-12-03T02:30:15.606Z,10.40
2022-12-03T02:32:43.881Z,11.23
2022-12-03T02:35:16.237Z,10.73
2022-12-03T02:37:46.202Z,11.10
2022-12-03T02:40:21.500Z,11.50
2022-12-03T02:42:54.856Z,11.57
2022-12-03T02:45:27.561Z,11.30
2022-12-03T02:47:59.853Z,11.17
2022-12-03T02:50:30.430Z,12.03
2022-12-03T02:53:00.254Z,12.27
2022-12-03T02:55:36.781Z,11.77
2022-12-03T02:58:06.648Z,11.00
2022-12-03T03:00:36.560Z,10.50
2022-12-03T03:03:06.808Z,11.33
2022-12-03T03:05:36.934Z,9.83
2022-12-03T03:08:06.595Z,10.27
2022-12-03T03:10:38.157Z,10.10
2022-12-03T03:13:09.863Z,10.00
2022-12-03T03:15:39.081Z,10.83
2022-12-03T03:18:07.874Z,11.10
2022-12-03T03:20:36.589Z,10.93
2022-12-03T03:23:14.186Z,11.97
2022-12-03T03:25:46.243Z,13.47
2022-12-03T03:28:15.750Z,12.90
2022-12-03T03:30:44.748Z,13.80
2022-12-03T03:33:14.293Z,13.90
2022-12-03T03:35:44.145Z,12.20
2022-12-03T03:38:13.294Z,12.23
2022-12-03T03:40:43.545Z,12.87
2022-12-03T03:43:12.702Z,11.23
2022-12-03T03:45:41.090Z,10.10
2022-12-03T03:48:09.334Z,11.00
2022-12-03T03:50:37.947Z,10.83
2022-12-03T03:53:06.855Z,11.63
2022-12-03T03:55:35.722Z,13.63
2022-12-03T03:58:05.500Z,12.30
2022-12-03T04:00:33.870Z,14.63
2022-12-03T04:03:02.008Z,13.50
2022-12-03T04:05:30.579Z,13.73
2022-12-03T04:07:59.701Z,14.40
2022-12-03T04:10:45.599Z,12.43
2022-12-03T04:13:15.219Z,15.27
2022-12-03T04:15:43.398Z,14.40
2022-12-03T04:18:28.802Z,16.07
2022-12-03T04:21:16.928Z,15.13
2022-12-03T04:23:44.248Z,16.00
2022-12-03T04:26:30.174Z,14.40
2022-12-03T04:28:59.882Z,14.73
2022-12-03T04:31:45.234Z,16.37
2022-12-03T04:34:30.758Z,15.37
2022-12-03T04:36:59.044Z,16.20
2022-12-03T04:39:27.214Z,17.03
2022-12-03T04:41:55.483Z,16.63
2022-12-03T04:44:37.189Z,15.77
2022-12-03T04:47:08.484Z,16.13
2022-12-03T04:49:37.767Z,16.60
2022-12-03T04:52:06.595Z,16.70
2022-12-03T04:54:34.762Z,16.17
2022-12-03T04:57:03.642Z,15.50
2022-12-03T04:59:33.874Z,15.10
2022-12-03T05:02:02.178Z,15.10
2022-12-03T05:04:30.920Z,13.60
2022-12-03T05:06:59.098Z,13.33
2022-12-03T05:09:27.350Z,13.80
2022-12-03T05:11:55.495Z,12.00
2022-12-03T05:14:23.656Z,12.00
2022-12-03T05:16:53.170Z,11.23
2022-12-03T05:19:41.672Z,11.50
2022-12-03T05:22:08.829Z,10.70
2022-12-03T05:24:36.925Z,11.20
2022-12-03T05:27:05.194Z,11.70
2022-12-03T05:29:33.275Z,10.30
2022-12-03T05:32:02.805Z,12.10
2022-12-03T05:34:30.951Z,11.00
2022-12-03T05:36:59.124Z,11.03
2022-12-03T05:39:27.206Z,12.37
2022-12-03T05:42:12.718Z,10.93
2022-12-03T05:44:40.850Z,11.43
2022-12-03T05:47:10.347Z,11.90
2022-12-03T05:49:38.546Z,11.90
2022-12-03T05:52:06.846Z,11.40
2022-12-03T05:54:34.956Z,11.63
2022-12-03T05:57:03.484Z,12.90
2022-12-03T05:59:31.691Z,12.90
2022-12-03T06:01:59.865Z,12.67
2022-12-03T06:04:29.382Z,13.33
2022-12-03T06:06:57.661Z,13.37
2022-12-03T06:09:25.935Z,13.43
2022-12-03T06:11:54.465Z,12.90
2022-12-03T06:14:22.645Z,12.80
2022-12-03T06:16:50.854Z,12.20
2022-12-03T06:19:19.059Z,12.33
2022-12-03T06:21:48.588Z,11.13
2022-12-03T06:24:16.722Z,11.20
2022-12-03T06:26:44.964Z,10.50
2022-12-03T06:29:13.085Z,12.20
2022-12-03T06:31:41.315Z,9.93
2022-12-03T06:34:09.517Z,10.73
2022-12-03T06:36:37.679Z,12.67
2022-12-03T06:39:07.323Z,11.67
2022-12-03T06:41:35.510Z,9.67
2022-12-03T06:44:03.644Z,12.40
2022-12-03T06:46:31.920Z,12.40
2022-12-03T06:49:00.409Z,14.37
2022-12-03T06:51:28.738Z,12.00
2022-12-03T06:53:56.891Z,12.30
2022-12-03T06:56:29.745Z,11.67
2022-12-03T06:59:02.582Z,12.07
2022-12-03T07:01:32.021Z,12.00
2022-12-03T07:04:00.213Z,12.20
2022-12-03T07:06:28.339Z,12.47
2022-12-03T07:08:56.513Z,12.33
2022-12-03T07:11:40.518Z,12.53
2022-12-03T07:14:11.669Z,12.97
2022-12-03T07:16:43.330Z,14.10
2022-12-03T07:19:12.682Z,15.73
2022-12-03T07:21:41.107Z,14.80
2022-12-03T07:24:09.570Z,14.20
2022-12-03T07:26:39.250Z,14.33
2022-12-03T07:29:07.597Z,13.50
2022-12-03T07:31:35.777Z,13.03
2022-12-03T07:34:03.956Z,13.33
2022-12-03T07:36:32.286Z,14.20
2022-12-03T07:39:00.444Z,14.27
2022-12-03T07:41:28.590Z,14.43
2022-12-03T07:43:58.959Z,12.60
2022-12-03T07:46:27.143Z,13.47
2022-12-03T07:48:55.431Z,13.27
2022-12-03T07:51:27.541Z,14.43
2022-12-03T07:54:00.030Z,14.20
2022-12-03T07:56:28.246Z,14.70
2022-12-03T07:58:56.446Z,16.00
2022-12-03T08:01:26.757Z,14.07
2022-12-03T08:03:54.962Z,14.47
2022-12-03T08:06:23.313Z,14.00
2022-12-03T08:08:51.911Z,14.50
2022-12-03T08:11:20.008Z,15.97
2022-12-03T08:13:48.330Z,13.87
2022-12-03T08:16:18.747Z,14.27
2022-12-03T08:18:50.047Z,14.13
2022-12-03T08:21:20.604Z,14.97
2022-12-03T08:23:49.137Z,14.90
2022-12-03T08:26:24.213Z,15.43
2022-12-03T08:28:53.321Z,14.90
2022-12-03T08:31:27.963Z,15.73
2022-12-03T08:34:07.745Z,15.37
2022-12-03T08:36:36.454Z,14.20
2022-12-03T08:39:28.249Z,15.33
2022-12-03T08:42:21.266Z,14.13
2022-12-03T08:44:49.501Z,13.73
2022-12-03T08:47:21.405Z,13.40
2022-12-03T08:49:54.953Z,13.70
2022-12-03T08:52:27.908Z,12.43
2022-12-03T08:54:58.580Z,12.53
2022-12-03T08:57:29.785Z,14.27
2022-12-03T09:00:02.130Z,13.10
2022-12-03T09:02:34.082Z,13.67
2022-12-03T09:05:15.256Z,12.80
2022-12-03T09:07:43.471Z,15.50
2022-12-03T09:10:12.016Z,15.00
2022-12-03T09:12:40.244Z,14.87
2022-12-03T09:15:09.800Z,14.93
2022-12-03T09:17:38.746Z,15.57
2022-12-03T09:20:10.020Z,16.93
2022-12-03T09:22:38.234Z,15.87
2022-12-03T09:25:07.404Z,16.93
2022-12-03T09:27:35.536Z,15.90
2022-12-03T09:30:03.964Z,16.90
2022-12-03T09:32:32.333Z,16.60
2022-12-03T09:35:00.541Z,15.33
2022-12-03T09:37:30.099Z,15.60
2022-12-03T09:39:58.256Z,13.53
2022-12-03T09:42:26.907Z,13.27
2022-12-03T09:44:55.701Z,13.60
2022-12-03T09:47:25.155Z,15.80
2022-12-03T09:49:54.741Z,14.83
2022-12-03T09:52:27.205Z,15.00
2022-12-03T09:54:57.519Z,13.87
2022-12-03T09:57:26.068Z,13.77
2022-12-03T09:59:59.637Z,14.40
2022-12-03T10:02:31.009Z,14.90
2022-12-03T10:04:59.688Z,16.93
2022-12-03T10:07:27.893Z,15.43
2022-12-03T10:09:57.615Z,16.20
2022-12-03T10:12:26.408Z,16.83
2022-12-03T10:14:54.894Z,18.10
2022-12-03T10:17:23.398Z,19.80
2022-12-03T10:19:51.942Z,18.40
2022-12-03T10:22:20.285Z,18.60
2022-12-03T10:25:06.424Z,19.90
2022-12-03T10:27:34.712Z,18.97
2022-12-03T10:30:05.693Z,18.87
2022-12-03T10:32:41.660Z,17.80
2022-12-03T10:35:13.257Z,18.77
2022-12-03T10:37:59.202Z,18.10
2022-12-03T10:40:30.540Z,18.17
2022-12-03T10:43:15.809Z,18.97
2022-12-03T10:45:44.745Z,18.50
2022-12-03T10:48:16.196Z,18.97
2022-12-03T10:50:50.011Z,17.70
2022-12-03T10:53:19.100Z,17.97
2022-12-03T10:55:52.350Z,17.93
2022-12-03T10:58:26.838Z,16.90
2022-12-03T11:00:57.755Z,16.90
2022-12-03T11:03:28.734Z,17.63
2022-12-03T11:05:58.401Z,16.50
2022-12-03T11:08:30.025Z,19.03
2022-12-03T11:11:02.106Z,17.80
2022-12-03T11:13:46.088Z,22.33
2022-12-03T11:16:15.470Z,22.73
2022-12-03T11:19:01.389Z,20.00
2022-12-03T11:21:30.148Z,21.40
2022-12-03T11:24:22.322Z,19.70
2022-12-03T11:27:18.224Z,19.37
2022-12-03T11:29:56.150Z,17.67
2022-12-03T11:33:10.362Z,18.70
2022-12-03T11:36:15.677Z,19.13
2022-12-03T11:38:57.571Z,18.07
2022-12-03T11:41:29.424Z,21.20
2022-12-03T11:44:18.043Z,22.23
2022-12-03T11:46:47.399Z,21.70
2022-12-03T11:49:37.585Z,19.77
2022-12-03T11:52:24.039Z,20.90
2022-12-03T11:54:55.190Z,21.10
2022-12-03T11:57:37.272Z,20.40
2022-12-03T12:00:22.546Z,21.23
2022-12-03T12:02:51.944Z,21.17
2022-12-03T12:05:29.316Z,18.83
2022-12-03T12:07:58.378Z,19.97
2022-12-03T12:10:40.273Z,18.33
2022-12-03T12:13:25.759Z,19.80
2022-12-03T12:15:55.429Z,20.53
2022-12-03T12:18:40.956Z,19.97
2022-12-03T12:21:41.476Z,19.93
2022-12-03T12:24:32.434Z,18.33
2022-12-03T12:27:03.086Z,18.03
2022-12-03T12:29:31.248Z,18.00
2022-12-03T12:32:03.810Z,19.77
2022-12-03T12:34:33.227Z,17.20
2022-12-03T12:37:03.902Z,18.80
2022-12-03T12:39:32.482Z,19.90
2022-12-03T12:42:00.708Z,20.00
2022-12-03T12:44:28.870Z,20.20
2022-12-03T12:46:58.739Z,19.50
2022-12-03T12:49:29.167Z,18.47
2022-12-03T12:51:57.508Z,20.80
2022-12-03T12:54:26.606Z,18.87
2022-12-03T12:56:54.649Z,18.73
2022-12-03T12:59:24.363Z,19.30
2022-12-03T13:01:52.786Z,19.07
2022-12-03T13:04:22.827Z,19.73
2022-12-03T13:06:54.910Z,19.40
2022-12-03T13:09:24.501Z,18.93
2022-12-03T13:11:53.818Z,19.17
2022-12-03T13:14:24.253Z,18.77
2022-12-03T13:16:54.349Z,16.93
2022-12-03T13:19:24.466Z,19.20
2022-12-03T13:21:55.046Z,18.23
2022-12-03T13:24:30.680Z,18.30
2022-12-03T13:27:00.135Z,18.40
2022-12-03T13:29:29.110Z,19.20
2022-12-03T13:31:59.523Z,20.40
2022-12-03T13:34:29.734Z,19.20
2022-12-03T13:37:00.595Z,18.07
2022-12-03T13:39:32.527Z,17.73
2022-12-03T13:42:31.394Z,21.60
2022-12-03T13:44:59.740Z,22.60
2022-12-03T13:47:28.113Z,18.90
2022-12-03T13:49:59.017Z,20.20
2022-12-03T13:52:32.722Z,19.30
2022-12-03T13:55:04.649Z,18.23
2022-12-03T13:57:32.797Z,19.30
2022-12-03T14:00:01.378Z,20.40
2022-12-03T14:02:29.532Z,20.83
2022-12-03T14:05:00.440Z,20.27
2022-12-03T14:07:30.414Z,18.50
2022-12-03T14:09:58.764Z,18.97
2022-12-03T14:12:26.935Z,19.90
2022-12-03T14:14:55.957Z,19.23
2022-12-03T14:17:24.081Z,21.37
2022-12-03T14:19:52.674Z,20.10
2022-12-03T14:22:23.384Z,23.60
2022-12-03T14:24:53.550Z,22.50
2022-12-03T14:27:22.709Z,20.23
2022-12-03T14:29:50.845Z,20.37
2022-12-03T14:32:19.038Z,19.47
2022-12-03T14:34:47.509Z,19.30
2022-12-03T14:37:15.730Z,19.50
2022-12-03T14:39:43.864Z,20.37
2022-12-03T14:42:16.815Z,21.30
2022-12-03T14:44:47.616Z,19.17
2022-12-03T14:47:17.260Z,20.23
2022-12-03T14:49:45.530Z,18.50
2022-12-03T14:52:13.904Z,18.70
2022-12-03T14:54:43.169Z,20.03
2022-12-03T14:57:13.509Z,24.73
2022-12-03T14:59:42.145Z,24.20
2022-12-03T15:02:11.098Z,23.70
2022-12-03T15:04:39.519Z,23.20
2022-12-03T15:07:07.862Z,24.43
2022-12-03T15:09:36.278Z,36.73
2022-12-03T15:12:04.664Z,28.13
2022-12-03T15:14:34.210Z,27.47
2022-12-03T15:17:02.487Z,25.97
2022-12-03T15:19:30.987Z,32.20
2022-12-03T15:21:59.146Z,24.37
2022-12-03T15:24:27.511Z,23.07
2022-12-03T15:26:56.158Z,21.77
2022-12-03T15:29:24.749Z,22.93
2022-12-03T15:31:54.210Z,22.10
2022-12-03T15:34:23.387Z,24.93
2022-12-03T15:36:51.937Z,23.73
2022-12-03T15:39:20.398Z,22.97
2022-12-03T15:41:49.656Z,21.63
2022-12-03T15:44:17.875Z,23.03
2022-12-03T15:46:46.125Z,21.90
2022-12-03T15:49:15.721Z,20.77
2022-12-03T15:51:43.903Z,22.83
2022-12-03T15:54:12.427Z,22.67
2022-12-03T15:56:40.677Z,28.70
2022-12-03T15:59:08.817Z,24.17
2022-12-03T16:01:37.068Z,26.50
2022-12-03T16:04:05.483Z,29.20
2022-12-03T16:06:34.954Z,23.60
2022-12-03T16:09:03.136Z,25.97
2022-12-03T16:11:31.448Z,24.80
2022-12-03T16:13:59.603Z,25.70
2022-12-03T16:16:28.145Z,25.27
2022-12-03T16:18:56.426Z,23.20
2022-12-03T16:21:26.993Z,20.93
2022-12-03T16:23:57.334Z,22.70
2022-12-03T16:26:25.493Z,21.10
2022-12-03T16:28:53.964Z,21.50
2022-12-03T16:31:22.201Z,20.87
2022-12-03T16:33:50.565Z,19.90
2022-12-03T16:36:18.722Z,21.27
2022-12-03T16:38:46.983Z,20.50
2022-12-03T16:41:16.434Z,22.87
2022-12-03T16:43:47.293Z,21.43
2022-12-03T16:46:25.692Z,19.83
2022-12-03T16:48:55.272Z,20.10
2022-12-03T16:51:23.951Z,20.10
2022-12-03T16:53:52.135Z,18.43
2022-12-03T16:56:22.258Z,22.13
2022-12-03T16:58:50.585Z,22.77
2022-12-03T17:01:18.891Z,21.60
2022-12-03T17:04:04.814Z,21.30
2022-12-03T17:06:33.031Z,20.00
2022-12-03T17:09:01.970Z,19.50
2022-12-03T17:11:31.502Z,17.67
2022-12-03T17:13:59.630Z,21.60
2022-12-03T17:16:28.052Z,25.20
2022-12-03T17:18:56.152Z,18.77
2022-12-03T17:21:24.236Z,20.30
2022-12-03T17:23:52.576Z,22.73
2022-12-03T17:26:21.029Z,24.57
2022-12-03T17:28:51.617Z,26.00
2022-12-03T17:31:19.906Z,32.80
2022-12-03T17:33:48.158Z,32.17
2022-12-03T17:36:16.300Z,24.83
2022-12-03T17:38:44.494Z,21.00
2022-12-03T17:41:12.750Z,25.77
2022-12-03T17:43:40.932Z,28.27
2022-12-03T17:46:10.480Z,28.93
2022-12-03T17:48:40.534Z,22.70
2022-12-03T17:51:08.923Z,25.30
2022-12-03T17:53:37.274Z,23.80
2022-12-03T17:56:05.641Z,22.90
2022-12-03T17:58:33.875Z,19.70
2022-12-03T18:01:03.071Z,21.30
2022-12-03T18:03:33.058Z,22.70
2022-12-03T18:06:01.210Z,20.43
2022-12-03T18:08:29.363Z,21.77
2022-12-03T18:10:57.521Z,27.27
2022-12-03T18:13:25.778Z,23.87
2022-12-03T18:15:53.957Z,24.77
2022-12-03T18:18:22.148Z,23.63
2022-12-03T18:20:52.713Z,23.07
2022-12-03T18:23:21.751Z,21.57
2022-12-03T18:25:56.676Z,19.13
2022-12-03T18:28:45.749Z,19.43
2022-12-03T18:31:24.665Z,18.67
2022-12-03T18:33:58.276Z,24.53
2022-12-03T18:36:34.744Z,26.30
2022-12-03T18:39:06.270Z,24.00
2022-12-03T18:41:36.102Z,22.80
2022-12-03T18:44:08.228Z,25.90
2022-12-03T18:46:53.138Z,23.90
2022-12-03T18:49:22.505Z,23.67
2022-12-03T18:51:58.936Z,25.20
2022-12-03T18:54:30.884Z,21.80
2022-12-03T18:57:12.643Z,17.90
2022-12-03T18:59:45.257Z,19.03
2022-12-03T19:02:54.135Z,16.20
2022-12-03T19:05:09.431Z,16.20
2022-12-03T19:07:43.629Z,17.60
2022-12-03T19:10:14.204Z,22.93
2022-12-03T19:12:46.238Z,19.80
2022-12-03T19:15:18.368Z,22.73
2022-12-03T19:17:53.670Z,19.37
2022-12-03T19:20:25.803Z,24.00
2022-12-03T19:22:56.879Z,21.17
2022-12-03T19:25:27.003Z,16.27
2022-12-03T19:28:03.158Z,16.97
2022-12-03T19:30:34.309Z,15.47
2022-12-03T19:33:25.135Z,20.20
2022-12-03T19:36:11.749Z,17.50
2022-12-03T19:38:57.522Z,17.77
2022-12-03T19:41:28.316Z,17.87
2022-12-03T19:43:57.729Z,40.60
2022-12-03T19:46:28.733Z,20.90
2022-12-03T19:48:57.240Z,18.13
2022-12-03T19:51:34.522Z,18.47
2022-12-03T19:54:05.839Z,17.90
2022-12-03T19:56:34.110Z,21.17
2022-12-03T19:59:03.106Z,26.53
2022-12-03T20:01:33.745Z,31.77
2022-12-03T20:04:03.614Z,32.00
2022-12-03T20:06:34.019Z,33.10
2022-12-03T20:09:06.661Z,32.50
2022-12-03T20:11:35.970Z,24.67
2022-12-03T20:14:06.613Z,32.37
2022-12-03T20:16:35.891Z,45.83
2022-12-03T20:19:06.322Z,110.80
2022-12-03T20:21:36.783Z,45.43
2022-12-03T20:24:08.404Z,32.70
2022-12-03T20:26:36.680Z,35.63
2022-12-03T20:29:05.568Z,37.73
2022-12-03T20:31:34.233Z,35.37
2022-12-03T20:34:04.915Z,33.33
2022-12-03T20:36:33.702Z,33.57
2022-12-03T20:39:03.499Z,33.40
2022-12-03T20:41:36.021Z,28.37
2022-12-03T20:44:05.963Z,33.10
2022-12-03T20:46:36.243Z,31.30
2022-12-03T20:49:05.205Z,30.00
2022-12-03T20:51:33.610Z,27.10
2022-12-03T20:54:02.223Z,29.77
2022-12-03T20:56:33.440Z,28.47
2022-12-03T20:59:04.797Z,26.30
2022-12-03T21:01:33.404Z,25.17
2022-12-03T21:04:02.545Z,23.77
2022-12-03T21:06:31.998Z,24.37
2022-12-03T21:09:00.854Z,23.10
2022-12-03T21:11:31.067Z,22.23
2022-12-03T21:14:01.514Z,24.13
2022-12-03T21:17:06.553Z,24.27
2022-12-03T21:19:21.931Z,26.00
2022-12-03T21:22:11.172Z,23.63
2022-12-03T21:24:46.784Z,23.80
2022-12-03T21:27:23.574Z,25.40
2022-12-03T21:30:00.335Z,22.67
2022-12-03T21:32:37.918Z,24.70
2022-12-03T21:35:06.927Z,24.90
2022-12-03T21:37:35.106Z,26.00
2022-12-03T21:40:03.296Z,25.30
2022-12-03T21:42:36.580Z,24.73
2022-12-03T21:45:08.120Z,27.03
2022-12-03T21:47:37.528Z,23.00
2022-12-03T21:50:07.549Z,26.43
2022-12-03T21:52:36.579Z,27.47
2022-12-03T21:55:05.383Z,23.90
2022-12-03T21:57:36.696Z,24.47
2022-12-03T22:00:09.071Z,23.20
2022-12-03T22:02:40.946Z,24.40
2022-12-03T22:05:10.531Z,23.33
2022-12-03T22:07:40.118Z,25.63
2022-12-03T22:10:10.723Z,25.07
2022-12-03T22:12:40.769Z,24.80
2022-12-03T22:15:16.715Z,23.20
2022-12-03T22:17:47.143Z,23.50
2022-12-03T22:20:15.963Z,25.73
2022-12-03T22:22:44.189Z,25.73
2022-12-03T22:25:12.428Z,24.37
2022-12-03T22:27:40.538Z,26.40
2022-12-03T22:30:10.968Z,27.20
2022-12-03T22:32:39.095Z,24.60
2022-12-03T22:35:07.799Z,21.93
2022-12-03T22:37:36.000Z,24.90
2022-12-03T22:40:05.037Z,24.07
2022-12-03T22:42:33.215Z,23.00
2022-12-03T22:45:01.324Z,21.87
2022-12-03T22:47:31.031Z,22.73
2022-12-03T22:49:59.282Z,23.20
2022-12-03T22:52:27.453Z,24.07
2022-12-03T22:54:55.671Z,28.67
2022-12-03T22:57:23.869Z,24.67
2022-12-03T22:59:52.270Z,25.40
2022-12-03T23:02:20.778Z,25.60
2022-12-03T23:04:50.488Z,28.73
2022-12-03T23:07:18.767Z,23.70
2022-12-03T23:09:47.125Z,26.90
2022-12-03T23:12:15.341Z,24.50
2022-12-03T23:14:43.563Z,22.93
2022-12-03T23:17:11.681Z,23.17
2022-12-03T23:19:39.991Z,25.00
2022-12-03T23:22:09.455Z,23.87
2022-12-03T23:24:37.899Z,23.20
2022-12-03T23:27:06.043Z,21.97
2022-12-03T23:29:35.732Z,22.07
2022-12-03T23:32:04.226Z,26.67
2022-12-03T23:34:32.488Z,29.07
2022-12-03T23:37:00.658Z,26.93
2022-12-03T23:39:30.361Z,20.47
2022-12-03T23:41:58.477Z,20.63
2022-12-03T23:44:28.519Z,23.63
2022-12-03T23:46:56.726Z,21.67
2022-12-03T23:49:24.975Z,21.40
2022-12-03T23:51:53.322Z,23.53
2022-12-03T23:54:21.779Z,29.50
2022-12-03T23:56:51.497Z,25.47
2022-12-03T23:59:19.764Z,22.73
